sensor_id;sensor_type;location;lat;lon;timestamp;P1;durP1;ratioP1;P2;durP2;ratioP2
75512;SDS011;64090;49.770;18.760;2022-10-31T00:01:34;10.60;;;4.20;;
75512;SDS011;64090;49.770;18.760;2022-10-31T00:04:03;8.10;;;3.30;;
75512;SDS011;64090;49.770;18.760;2022-10-31T00:06:32;4.70;;;3.50;;
75512;SDS011;64090;49.770;18.760;2022-10-31T00:09:01;5.50;;;3.50;;
75512;SDS011;64090;49.770;18.760;2022-10-31T00:11:31;9.50;;;3.60;;
75512;SDS011;64090;49.770;18.760;2022-10-31T00:13:59;7.20;;;4.10;;
75512;SDS011;64090;49.770;18.760;2022-10-31T00:16:28;8.70;;;4.70;;
75512;SDS011;64090;49.770;18.760;2022-10-31T00:19:02;8.40;;;3.80;;
75512;SDS011;64090;49.770;18.760;2022-10-31T00:21:33;8.40;;;4.20;;
75512;SDS011;64090;49.770;18.760;2022-10-31T00:24:02;8.10;;;3.50;;
75512;SDS011;64090;49.770;18.760;2022-10-31T00:26:30;6.90;;;3.40;;
75512;SDS011;64090;49.770;18.760;2022-10-31T00:28:59;8.60;;;3.70;;
75512;SDS011;64090;49.770;18.760;2022-10-31T00:31:27;6.30;;;3.70;;
75512;SDS011;64090;49.770;18.760;2022-10-31T00:33:56;7.60;;;3.70;;
75512;SDS011;64090;49.770;18.760;2022-10-31T00:36:28;9.20;;;3.80;;
75512;SDS011;64090;49.770;18.760;2022-10-31T00:38:57;6.90;;;3.40;;
75512;SDS011;64090;49.770;18.760;2022-10-31T00:41:25;7.90;;;3.80;;
75512;SDS011;64090;49.770;18.760;2022-10-31T00:43:53;7.30;;;3.90;;
75512;SDS011;64090;49.770;18.760;2022-10-31T00:46:21;7.50;;;3.80;;
75512;SDS011;64090;49.770;18.760;2022-10-31T00:48:49;6.60;;;3.70;;
75512;SDS011;64090;49.770;18.760;2022-10-31T00:51:16;9.10;;;4.30;;
75512;SDS011;64090;49.770;18.760;2022-10-31T00:53:44;9.60;;;5.10;;
75512;SDS011;64090;49.770;18.760;2022-10-31T00:56:12;6.90;;;4.30;;
75512;SDS011;64090;49.770;18.760;2022-10-31T00:58:41;8.00;;;4.00;;
75512;SDS011;64090;49.770;18.760;2022-10-31T01:01:08;6.70;;;4.40;;
75512;SDS011;64090;49.770;18.760;2022-10-31T01:03:36;8.70;;;4.40;;
75512;SDS011;64090;49.770;18.760;2022-10-31T01:06:07;8.00;;;3.50;;
75512;SDS011;64090;49.770;18.760;2022-10-31T01:08:37;7.30;;;4.50;;
75512;SDS011;64090;49.770;18.760;2022-10-31T01:11:07;6.40;;;4.20;;
75512;SDS011;64090;49.770;18.760;2022-10-31T01:13:35;5.90;;;3.70;;
75512;SDS011;64090;49.770;18.760;2022-10-31T01:16:04;6.60;;;3.40;;
75512;SDS011;64090;49.770;18.760;2022-10-31T01:18:34;8.40;;;3.80;;
75512;SDS011;64090;49.770;18.760;2022-10-31T01:23:35;9.30;;;3.90;;
75512;SDS011;64090;49.770;18.760;2022-10-31T01:26:10;7.10;;;4.90;;
75512;SDS011;64090;49.770;18.760;2022-10-31T01:29:00;9.30;;;4.20;;
75512;SDS011;64090;49.770;18.760;2022-10-31T01:31:32;8.60;;;4.60;;
75512;SDS011;64090;49.770;18.760;2022-10-31T01:34:02;9.40;;;4.30;;
75512;SDS011;64090;49.770;18.760;2022-10-31T01:36:32;8.90;;;4.90;;
75512;SDS011;64090;49.770;18.760;2022-10-31T01:39:03;5.80;;;3.40;;
75512;SDS011;64090;49.770;18.760;2022-10-31T01:41:34;8.40;;;3.80;;
75512;SDS011;64090;49.770;18.760;2022-10-31T01:46:42;10.20;;;4.70;;
75512;SDS011;64090;49.770;18.760;2022-10-31T01:49:18;8.40;;;4.10;;
75512;SDS011;64090;49.770;18.760;2022-10-31T01:52:27;10.10;;;4.60;;
75512;SDS011;64090;49.770;18.760;2022-10-31T01:55:12;9.40;;;4.20;;
75512;SDS011;64090;49.770;18.760;2022-10-31T01:57:48;8.80;;;3.90;;
75512;SDS011;64090;49.770;18.760;2022-10-31T02:00:19;7.60;;;4.00;;
75512;SDS011;64090;49.770;18.760;2022-10-31T02:02:49;9.00;;;4.60;;
75512;SDS011;64090;49.770;18.760;2022-10-31T02:05:18;9.70;;;4.40;;
75512;SDS011;64090;49.770;18.760;2022-10-31T02:10:24;9.40;;;4.90;;
75512;SDS011;64090;49.770;18.760;2022-10-31T02:12:52;6.20;;;3.70;;
75512;SDS011;64090;49.770;18.760;2022-10-31T02:15:24;8.80;;;3.80;;
75512;SDS011;64090;49.770;18.760;2022-10-31T02:17:52;6.90;;;3.40;;
75512;SDS011;64090;49.770;18.760;2022-10-31T02:20:21;8.10;;;4.60;;
75512;SDS011;64090;49.770;18.760;2022-10-31T02:26:02;9.30;;;3.90;;
75512;SDS011;64090;49.770;18.760;2022-10-31T02:31:43;5.80;;;2.90;;
75512;SDS011;64090;49.770;18.760;2022-10-31T02:37:01;6.20;;;3.20;;
75512;SDS011;64090;49.770;18.760;2022-10-31T02:48:34;7.20;;;3.40;;
75512;SDS011;64090;49.770;18.760;2022-10-31T02:51:07;7.20;;;3.00;;
75512;SDS011;64090;49.770;18.760;2022-10-31T02:53:37;7.00;;;4.10;;
75512;SDS011;64090;49.770;18.760;2022-10-31T02:56:16;9.40;;;3.60;;
75512;SDS011;64090;49.770;18.760;2022-10-31T02:59:03;5.40;;;4.10;;
75512;SDS011;64090;49.770;18.760;2022-10-31T03:15:32;6.10;;;3.20;;
75512;SDS011;64090;49.770;18.760;2022-10-31T03:18:05;6.30;;;3.40;;
75512;SDS011;64090;49.770;18.760;2022-10-31T03:20:37;8.80;;;3.90;;
75512;SDS011;64090;49.770;18.760;2022-10-31T03:23:11;7.00;;;4.70;;
75512;SDS011;64090;49.770;18.760;2022-10-31T03:25:43;8.20;;;4.00;;
75512;SDS011;64090;49.770;18.760;2022-10-31T03:28:12;7.70;;;4.00;;
75512;SDS011;64090;49.770;18.760;2022-10-31T03:30:44;7.60;;;3.90;;
75512;SDS011;64090;49.770;18.760;2022-10-31T03:33:15;11.50;;;3.60;;
75512;SDS011;64090;49.770;18.760;2022-10-31T03:35:49;11.80;;;4.80;;
75512;SDS011;64090;49.770;18.760;2022-10-31T03:38:20;7.70;;;3.60;;
75512;SDS011;64090;49.770;18.760;2022-10-31T03:40:50;6.20;;;3.60;;
75512;SDS011;64090;49.770;18.760;2022-10-31T03:43:22;7.10;;;3.50;;
75512;SDS011;64090;49.770;18.760;2022-10-31T03:45:55;6.90;;;3.30;;
75512;SDS011;64090;49.770;18.760;2022-10-31T03:48:24;7.90;;;3.30;;
75512;SDS011;64090;49.770;18.760;2022-10-31T03:53:31;8.00;;;3.40;;
75512;SDS011;64090;49.770;18.760;2022-10-31T03:56:11;7.40;;;3.80;;
75512;SDS011;64090;49.770;18.760;2022-10-31T04:01:48;5.90;;;3.10;;
75512;SDS011;64090;49.770;18.760;2022-10-31T04:04:19;6.70;;;3.30;;
75512;SDS011;64090;49.770;18.760;2022-10-31T04:06:48;5.80;;;3.40;;
75512;SDS011;64090;49.770;18.760;2022-10-31T04:09:17;6.70;;;3.80;;
75512;SDS011;64090;49.770;18.760;2022-10-31T04:11:50;8.60;;;3.40;;
75512;SDS011;64090;49.770;18.760;2022-10-31T04:14:21;8.80;;;3.50;;
75512;SDS011;64090;49.770;18.760;2022-10-31T04:16:52;7.10;;;4.10;;
75512;SDS011;64090;49.770;18.760;2022-10-31T04:19:21;7.30;;;4.20;;
75512;SDS011;64090;49.770;18.760;2022-10-31T04:21:48;8.20;;;3.70;;
75512;SDS011;64090;49.770;18.760;2022-10-31T04:24:16;6.90;;;3.40;;
75512;SDS011;64090;49.770;18.760;2022-10-31T04:26:44;6.50;;;3.20;;
75512;SDS011;64090;49.770;18.760;2022-10-31T04:29:12;6.20;;;3.30;;
75512;SDS011;64090;49.770;18.760;2022-10-31T04:31:39;9.60;;;4.50;;
75512;SDS011;64090;49.770;18.760;2022-10-31T04:34:07;8.20;;;4.30;;
75512;SDS011;64090;49.770;18.760;2022-10-31T04:36:35;9.80;;;4.40;;
75512;SDS011;64090;49.770;18.760;2022-10-31T04:39:03;7.40;;;4.00;;
75512;SDS011;64090;49.770;18.760;2022-10-31T04:41:31;9.30;;;3.70;;
75512;SDS011;64090;49.770;18.760;2022-10-31T04:43:59;6.60;;;3.80;;
75512;SDS011;64090;49.770;18.760;2022-10-31T04:46:26;9.00;;;4.30;;
75512;SDS011;64090;49.770;18.760;2022-10-31T04:48:54;7.50;;;4.70;;
75512;SDS011;64090;49.770;18.760;2022-10-31T04:51:22;8.10;;;4.90;;
75512;SDS011;64090;49.770;18.760;2022-10-31T04:53:50;6.90;;;4.50;;
75512;SDS011;64090;49.770;18.760;2022-10-31T04:56:17;10.40;;;4.80;;
75512;SDS011;64090;49.770;18.760;2022-10-31T04:58:45;9.00;;;4.40;;
75512;SDS011;64090;49.770;18.760;2022-10-31T05:01:13;9.70;;;5.30;;
75512;SDS011;64090;49.770;18.760;2022-10-31T05:03:41;8.70;;;5.10;;
75512;SDS011;64090;49.770;18.760;2022-10-31T05:06:09;7.70;;;4.30;;
75512;SDS011;64090;49.770;18.760;2022-10-31T05:08:36;6.10;;;4.20;;
75512;SDS011;64090;49.770;18.760;2022-10-31T05:11:04;10.30;;;4.70;;
75512;SDS011;64090;49.770;18.760;2022-10-31T05:13:32;9.20;;;4.90;;
75512;SDS011;64090;49.770;18.760;2022-10-31T05:16:00;9.60;;;4.90;;
75512;SDS011;64090;49.770;18.760;2022-10-31T05:18:28;8.00;;;5.20;;
75512;SDS011;64090;49.770;18.760;2022-10-31T05:20:55;5.70;;;3.70;;
75512;SDS011;64090;49.770;18.760;2022-10-31T05:23:23;6.80;;;4.30;;
75512;SDS011;64090;49.770;18.760;2022-10-31T05:25:51;7.40;;;4.30;;
75512;SDS011;64090;49.770;18.760;2022-10-31T05:28:19;7.90;;;4.40;;
75512;SDS011;64090;49.770;18.760;2022-10-31T05:30:47;9.50;;;5.10;;
75512;SDS011;64090;49.770;18.760;2022-10-31T05:33:14;6.50;;;3.80;;
75512;SDS011;64090;49.770;18.760;2022-10-31T05:35:42;9.60;;;4.90;;
75512;SDS011;64090;49.770;18.760;2022-10-31T05:38:10;8.20;;;4.40;;
75512;SDS011;64090;49.770;18.760;2022-10-31T05:40:38;8.60;;;4.10;;
75512;SDS011;64090;49.770;18.760;2022-10-31T05:43:05;9.70;;;4.60;;
75512;SDS011;64090;49.770;18.760;2022-10-31T05:45:33;8.60;;;4.50;;
75512;SDS011;64090;49.770;18.760;2022-10-31T05:48:01;9.30;;;5.30;;
75512;SDS011;64090;49.770;18.760;2022-10-31T05:50:30;8.40;;;5.00;;
75512;SDS011;64090;49.770;18.760;2022-10-31T05:53:00;9.10;;;4.60;;
75512;SDS011;64090;49.770;18.760;2022-10-31T05:55:30;8.30;;;5.00;;
75512;SDS011;64090;49.770;18.760;2022-10-31T05:57:58;10.30;;;5.40;;
75512;SDS011;64090;49.770;18.760;2022-10-31T06:00:27;10.30;;;4.90;;
75512;SDS011;64090;49.770;18.760;2022-10-31T06:02:59;6.90;;;5.00;;
75512;SDS011;64090;49.770;18.760;2022-10-31T06:05:31;10.70;;;4.90;;
75512;SDS011;64090;49.770;18.760;2022-10-31T06:07:59;10.40;;;5.00;;
75512;SDS011;64090;49.770;18.760;2022-10-31T06:10:27;9.50;;;5.10;;
75512;SDS011;64090;49.770;18.760;2022-10-31T06:12:55;6.70;;;4.20;;
75512;SDS011;64090;49.770;18.760;2022-10-31T06:15:23;9.20;;;4.90;;
75512;SDS011;64090;49.770;18.760;2022-10-31T06:17:58;9.10;;;4.90;;
75512;SDS011;64090;49.770;18.760;2022-10-31T06:20:28;8.40;;;4.20;;
75512;SDS011;64090;49.770;18.760;2022-10-31T06:22:56;8.30;;;4.80;;
75512;SDS011;64090;49.770;18.760;2022-10-31T06:25:25;9.00;;;5.20;;
75512;SDS011;64090;49.770;18.760;2022-10-31T06:27:53;10.60;;;5.40;;
75512;SDS011;64090;49.770;18.760;2022-10-31T06:30:21;8.60;;;5.70;;
75512;SDS011;64090;49.770;18.760;2022-10-31T06:32:49;8.60;;;4.00;;
75512;SDS011;64090;49.770;18.760;2022-10-31T06:35:17;9.30;;;4.80;;
75512;SDS011;64090;49.770;18.760;2022-10-31T06:37:54;10.60;;;5.10;;
75512;SDS011;64090;49.770;18.760;2022-10-31T06:40:22;9.40;;;4.60;;
75512;SDS011;64090;49.770;18.760;2022-10-31T06:43:00;12.00;;;6.00;;
75512;SDS011;64090;49.770;18.760;2022-10-31T06:45:28;10.40;;;5.40;;
75512;SDS011;64090;49.770;18.760;2022-10-31T06:47:56;8.60;;;4.60;;
75512;SDS011;64090;49.770;18.760;2022-10-31T06:50:44;9.60;;;4.50;;
75512;SDS011;64090;49.770;18.760;2022-10-31T06:53:12;9.80;;;4.60;;
75512;SDS011;64090;49.770;18.760;2022-10-31T06:55:41;8.20;;;4.60;;
75512;SDS011;64090;49.770;18.760;2022-10-31T06:58:10;8.90;;;4.60;;
75512;SDS011;64090;49.770;18.760;2022-10-31T07:00:38;8.10;;;4.40;;
75512;SDS011;64090;49.770;18.760;2022-10-31T07:03:08;9.80;;;3.90;;
75512;SDS011;64090;49.770;18.760;2022-10-31T07:05:39;8.10;;;4.00;;
75512;SDS011;64090;49.770;18.760;2022-10-31T07:08:08;8.10;;;4.60;;
75512;SDS011;64090;49.770;18.760;2022-10-31T07:10:39;7.80;;;4.60;;
75512;SDS011;64090;49.770;18.760;2022-10-31T07:13:10;11.20;;;6.50;;
75512;SDS011;64090;49.770;18.760;2022-10-31T07:15:42;8.80;;;4.30;;
75512;SDS011;64090;49.770;18.760;2022-10-31T07:18:11;8.90;;;4.80;;
75512;SDS011;64090;49.770;18.760;2022-10-31T07:20:39;7.40;;;4.40;;
75512;SDS011;64090;49.770;18.760;2022-10-31T07:23:08;10.40;;;4.50;;
75512;SDS011;64090;49.770;18.760;2022-10-31T07:25:38;10.30;;;6.40;;
75512;SDS011;64090;49.770;18.760;2022-10-31T07:28:06;9.50;;;4.60;;
75512;SDS011;64090;49.770;18.760;2022-10-31T07:30:36;8.50;;;5.00;;
75512;SDS011;64090;49.770;18.760;2022-10-31T07:33:05;9.90;;;5.60;;
75512;SDS011;64090;49.770;18.760;2022-10-31T07:35:33;10.00;;;5.90;;
75512;SDS011;64090;49.770;18.760;2022-10-31T07:38:09;8.00;;;4.30;;
75512;SDS011;64090;49.770;18.760;2022-10-31T07:40:38;10.00;;;4.80;;
75512;SDS011;64090;49.770;18.760;2022-10-31T07:43:07;8.00;;;4.20;;
75512;SDS011;64090;49.770;18.760;2022-10-31T07:45:41;8.30;;;4.20;;
75512;SDS011;64090;49.770;18.760;2022-10-31T07:48:08;8.70;;;4.10;;
75512;SDS011;64090;49.770;18.760;2022-10-31T07:50:36;9.10;;;5.20;;
75512;SDS011;64090;49.770;18.760;2022-10-31T07:53:05;10.30;;;4.80;;
75512;SDS011;64090;49.770;18.760;2022-10-31T07:55:35;6.70;;;3.10;;
75512;SDS011;64090;49.770;18.760;2022-10-31T07:58:10;7.50;;;3.70;;
75512;SDS011;64090;49.770;18.760;2022-10-31T08:00:40;10.90;;;6.00;;
75512;SDS011;64090;49.770;18.760;2022-10-31T08:05:39;9.00;;;4.70;;
75512;SDS011;64090;49.770;18.760;2022-10-31T08:08:08;9.20;;;5.00;;
75512;SDS011;64090;49.770;18.760;2022-10-31T08:10:36;11.70;;;4.90;;
75512;SDS011;64090;49.770;18.760;2022-10-31T08:13:05;7.90;;;3.90;;
75512;SDS011;64090;49.770;18.760;2022-10-31T08:15:35;10.70;;;5.10;;
75512;SDS011;64090;49.770;18.760;2022-10-31T08:18:06;9.00;;;5.20;;
75512;SDS011;64090;49.770;18.760;2022-10-31T08:20:39;11.30;;;5.20;;
75512;SDS011;64090;49.770;18.760;2022-10-31T08:23:08;10.00;;;5.90;;
75512;SDS011;64090;49.770;18.760;2022-10-31T08:25:37;12.10;;;6.30;;
75512;SDS011;64090;49.770;18.760;2022-10-31T08:28:06;15.80;;;7.40;;
75512;SDS011;64090;49.770;18.760;2022-10-31T08:30:36;10.70;;;6.20;;
75512;SDS011;64090;49.770;18.760;2022-10-31T08:33:06;9.90;;;6.10;;
75512;SDS011;64090;49.770;18.760;2022-10-31T08:35:37;10.20;;;5.40;;
75512;SDS011;64090;49.770;18.760;2022-10-31T08:38:04;10.70;;;6.00;;
75512;SDS011;64090;49.770;18.760;2022-10-31T08:40:33;11.60;;;5.50;;
75512;SDS011;64090;49.770;18.760;2022-10-31T08:43:03;11.10;;;6.10;;
75512;SDS011;64090;49.770;18.760;2022-10-31T08:45:33;10.60;;;5.90;;
75512;SDS011;64090;49.770;18.760;2022-10-31T08:48:02;9.80;;;5.10;;
75512;SDS011;64090;49.770;18.760;2022-10-31T08:50:33;9.30;;;5.60;;
75512;SDS011;64090;49.770;18.760;2022-10-31T08:55:34;9.90;;;5.70;;
75512;SDS011;64090;49.770;18.760;2022-10-31T08:58:04;7.60;;;4.10;;
75512;SDS011;64090;49.770;18.760;2022-10-31T09:00:33;9.00;;;4.80;;
75512;SDS011;64090;49.770;18.760;2022-10-31T09:03:03;12.90;;;5.90;;
75512;SDS011;64090;49.770;18.760;2022-10-31T09:05:32;10.50;;;5.10;;
75512;SDS011;64090;49.770;18.760;2022-10-31T09:08:01;12.00;;;6.60;;
75512;SDS011;64090;49.770;18.760;2022-10-31T09:10:31;11.30;;;6.50;;
75512;SDS011;64090;49.770;18.760;2022-10-31T09:13:06;10.00;;;5.20;;
75512;SDS011;64090;49.770;18.760;2022-10-31T09:15:37;10.60;;;5.80;;
75512;SDS011;64090;49.770;18.760;2022-10-31T09:18:06;9.60;;;6.00;;
75512;SDS011;64090;49.770;18.760;2022-10-31T09:20:35;10.40;;;5.40;;
75512;SDS011;64090;49.770;18.760;2022-10-31T09:25:49;8.80;;;3.80;;
75512;SDS011;64090;49.770;18.760;2022-10-31T09:28:22;10.80;;;6.00;;
75512;SDS011;64090;49.770;18.760;2022-10-31T09:33:19;7.70;;;4.80;;
75512;SDS011;64090;49.770;18.760;2022-10-31T09:35:48;12.00;;;6.00;;
75512;SDS011;64090;49.770;18.760;2022-10-31T09:38:17;13.90;;;5.60;;
75512;SDS011;64090;49.770;18.760;2022-10-31T09:40:48;11.20;;;5.40;;
75512;SDS011;64090;49.770;18.760;2022-10-31T09:46:28;11.10;;;5.40;;
75512;SDS011;64090;49.770;18.760;2022-10-31T09:49:34;13.70;;;5.80;;
75512;SDS011;64090;49.770;18.760;2022-10-31T09:52:35;9.80;;;5.00;;
75512;SDS011;64090;49.770;18.760;2022-10-31T09:55:09;9.70;;;5.20;;
75512;SDS011;64090;49.770;18.760;2022-10-31T09:57:45;17.70;;;5.10;;
75512;SDS011;64090;49.770;18.760;2022-10-31T10:00:16;12.50;;;5.00;;
75512;SDS011;64090;49.770;18.760;2022-10-31T10:02:51;9.80;;;4.50;;
75512;SDS011;64090;49.770;18.760;2022-10-31T10:05:26;8.60;;;4.40;;
75512;SDS011;64090;49.770;18.760;2022-10-31T10:08:02;8.70;;;4.60;;
75512;SDS011;64090;49.770;18.760;2022-10-31T10:10:51;8.40;;;4.00;;
75512;SDS011;64090;49.770;18.760;2022-10-31T10:13:39;10.00;;;4.50;;
75512;SDS011;64090;49.770;18.760;2022-10-31T10:22:25;9.60;;;5.30;;
75512;SDS011;64090;49.770;18.760;2022-10-31T10:30:50;10.80;;;5.30;;
75512;SDS011;64090;49.770;18.760;2022-10-31T10:33:27;11.00;;;4.80;;
75512;SDS011;64090;49.770;18.760;2022-10-31T10:36:04;8.80;;;5.00;;
75512;SDS011;64090;49.770;18.760;2022-10-31T10:38:37;10.80;;;5.10;;
75512;SDS011;64090;49.770;18.760;2022-10-31T10:41:19;11.40;;;5.50;;
75512;SDS011;64090;49.770;18.760;2022-10-31T10:43:53;13.40;;;6.80;;
75512;SDS011;64090;49.770;18.760;2022-10-31T10:49:48;10.30;;;4.30;;
75512;SDS011;64090;49.770;18.760;2022-10-31T10:55:37;12.60;;;5.50;;
75512;SDS011;64090;49.770;18.760;2022-10-31T10:58:14;9.80;;;4.30;;
75512;SDS011;64090;49.770;18.760;2022-10-31T11:00:42;8.70;;;3.90;;
75512;SDS011;64090;49.770;18.760;2022-10-31T11:03:15;8.50;;;3.30;;
75512;SDS011;64090;49.770;18.760;2022-10-31T11:05:50;8.50;;;3.70;;
75512;SDS011;64090;49.770;18.760;2022-10-31T11:10:59;9.10;;;4.70;;
75512;SDS011;64090;49.770;18.760;2022-10-31T11:13:31;7.90;;;3.90;;
75512;SDS011;64090;49.770;18.760;2022-10-31T11:16:05;9.90;;;3.90;;
75512;SDS011;64090;49.770;18.760;2022-10-31T11:18:40;12.40;;;4.70;;
75512;SDS011;64090;49.770;18.760;2022-10-31T11:21:23;9.20;;;4.30;;
75512;SDS011;64090;49.770;18.760;2022-10-31T11:24:02;10.60;;;4.30;;
75512;SDS011;64090;49.770;18.760;2022-10-31T11:26:30;6.40;;;3.50;;
75512;SDS011;64090;49.770;18.760;2022-10-31T11:28:58;8.50;;;3.90;;
75512;SDS011;64090;49.770;18.760;2022-10-31T11:31:27;10.70;;;5.10;;
75512;SDS011;64090;49.770;18.760;2022-10-31T11:34:05;9.90;;;4.60;;
75512;SDS011;64090;49.770;18.760;2022-10-31T11:36:42;8.90;;;4.10;;
75512;SDS011;64090;49.770;18.760;2022-10-31T11:39:16;7.60;;;3.90;;
75512;SDS011;64090;49.770;18.760;2022-10-31T11:41:48;10.30;;;4.20;;
75512;SDS011;64090;49.770;18.760;2022-10-31T11:44:22;7.60;;;4.10;;
75512;SDS011;64090;49.770;18.760;2022-10-31T11:49:37;7.50;;;3.60;;
75512;SDS011;64090;49.770;18.760;2022-10-31T11:52:15;9.90;;;3.40;;
75512;SDS011;64090;49.770;18.760;2022-10-31T11:57:26;8.90;;;4.10;;
75512;SDS011;64090;49.770;18.760;2022-10-31T11:59:57;9.90;;;3.40;;
75512;SDS011;64090;49.770;18.760;2022-10-31T12:02:30;8.10;;;4.10;;
75512;SDS011;64090;49.770;18.760;2022-10-31T12:05:18;7.90;;;4.20;;
75512;SDS011;64090;49.770;18.760;2022-10-31T12:07:51;8.00;;;3.70;;
75512;SDS011;64090;49.770;18.760;2022-10-31T12:10:19;7.10;;;2.90;;
75512;SDS011;64090;49.770;18.760;2022-10-31T12:13:19;8.80;;;4.10;;
75512;SDS011;64090;49.770;18.760;2022-10-31T12:16:06;10.10;;;3.70;;
75512;SDS011;64090;49.770;18.760;2022-10-31T12:30:11;7.30;;;4.60;;
75512;SDS011;64090;49.770;18.760;2022-10-31T12:35:32;10.60;;;4.50;;
75512;SDS011;64090;49.770;18.760;2022-10-31T12:38:16;7.70;;;4.00;;
75512;SDS011;64090;49.770;18.760;2022-10-31T12:41:00;8.20;;;3.90;;
75512;SDS011;64090;49.770;18.760;2022-10-31T12:46:48;9.30;;;4.60;;
75512;SDS011;64090;49.770;18.760;2022-10-31T13:00:58;8.30;;;4.70;;
75512;SDS011;64090;49.770;18.760;2022-10-31T13:07:00;12.70;;;5.90;;
75512;SDS011;64090;49.770;18.760;2022-10-31T13:09:39;9.80;;;4.60;;
75512;SDS011;64090;49.770;18.760;2022-10-31T13:12:18;8.90;;;4.50;;
75512;SDS011;64090;49.770;18.760;2022-10-31T13:14:50;10.20;;;6.20;;
75512;SDS011;64090;49.770;18.760;2022-10-31T13:20:18;8.50;;;5.00;;
75512;SDS011;64090;49.770;18.760;2022-10-31T13:22:51;9.70;;;5.20;;
75512;SDS011;64090;49.770;18.760;2022-10-31T13:25:24;13.60;;;5.60;;
75512;SDS011;64090;49.770;18.760;2022-10-31T13:28:09;12.40;;;6.20;;
75512;SDS011;64090;49.770;18.760;2022-10-31T13:30:50;8.70;;;4.80;;
75512;SDS011;64090;49.770;18.760;2022-10-31T13:33:26;9.60;;;5.50;;
75512;SDS011;64090;49.770;18.760;2022-10-31T13:38:48;12.00;;;6.30;;
75512;SDS011;64090;49.770;18.760;2022-10-31T13:41:28;12.60;;;5.30;;
75512;SDS011;64090;49.770;18.760;2022-10-31T13:44:14;10.50;;;5.00;;
75512;SDS011;64090;49.770;18.760;2022-10-31T13:50:02;11.30;;;5.40;;
75512;SDS011;64090;49.770;18.760;2022-10-31T13:54:39;9.30;;;4.70;;
75512;SDS011;64090;49.770;18.760;2022-10-31T14:02:51;11.40;;;5.00;;
75512;SDS011;64090;49.770;18.760;2022-10-31T14:05:23;12.20;;;5.90;;
75512;SDS011;64090;49.770;18.760;2022-10-31T14:07:52;8.90;;;4.80;;
75512;SDS011;64090;49.770;18.760;2022-10-31T14:10:28;11.20;;;5.40;;
75512;SDS011;64090;49.770;18.760;2022-10-31T14:13:04;8.50;;;5.20;;
75512;SDS011;64090;49.770;18.760;2022-10-31T14:15:42;16.30;;;10.40;;
75512;SDS011;64090;49.770;18.760;2022-10-31T14:18:29;19.70;;;12.20;;
75512;SDS011;64090;49.770;18.760;2022-10-31T14:20:58;12.70;;;5.90;;
75512;SDS011;64090;49.770;18.760;2022-10-31T14:23:36;11.90;;;5.80;;
75512;SDS011;64090;49.770;18.760;2022-10-31T14:28:54;11.70;;;5.90;;
75512;SDS011;64090;49.770;18.760;2022-10-31T14:31:44;11.80;;;5.90;;
75512;SDS011;64090;49.770;18.760;2022-10-31T14:51:21;12.70;;;6.10;;
75512;SDS011;64090;49.770;18.760;2022-10-31T14:53:54;14.90;;;5.90;;
75512;SDS011;64090;49.770;18.760;2022-10-31T14:56:28;13.00;;;6.40;;
75512;SDS011;64090;49.770;18.760;2022-10-31T14:59:00;16.30;;;7.10;;
75512;SDS011;64090;49.770;18.760;2022-10-31T15:01:31;17.20;;;9.20;;
75512;SDS011;64090;49.770;18.760;2022-10-31T15:04:13;14.80;;;8.20;;
75512;SDS011;64090;49.770;18.760;2022-10-31T15:06:58;15.20;;;7.80;;
75512;SDS011;64090;49.770;18.760;2022-10-31T15:09:33;15.40;;;8.10;;
75512;SDS011;64090;49.770;18.760;2022-10-31T15:14:49;16.40;;;8.90;;
75512;SDS011;64090;49.770;18.760;2022-10-31T15:17:17;16.80;;;9.70;;
75512;SDS011;64090;49.770;18.760;2022-10-31T15:19:46;19.40;;;9.70;;
75512;SDS011;64090;49.770;18.760;2022-10-31T15:22:16;21.30;;;12.30;;
75512;SDS011;64090;49.770;18.760;2022-10-31T15:24:46;20.40;;;11.30;;
75512;SDS011;64090;49.770;18.760;2022-10-31T15:27:16;21.50;;;9.60;;
75512;SDS011;64090;49.770;18.760;2022-10-31T15:29:48;13.60;;;8.30;;
75512;SDS011;64090;49.770;18.760;2022-10-31T15:32:21;19.40;;;9.10;;
75512;SDS011;64090;49.770;18.760;2022-10-31T15:34:54;16.20;;;9.90;;
75512;SDS011;64090;49.770;18.760;2022-10-31T15:37:24;21.50;;;11.80;;
75512;SDS011;64090;49.770;18.760;2022-10-31T15:39:53;18.30;;;10.10;;
75512;SDS011;64090;49.770;18.760;2022-10-31T15:42:32;23.80;;;12.10;;
75512;SDS011;64090;49.770;18.760;2022-10-31T15:47:37;29.70;;;14.40;;
75512;SDS011;64090;49.770;18.760;2022-10-31T15:50:06;23.70;;;13.60;;
75512;SDS011;64090;49.770;18.760;2022-10-31T15:52:48;28.90;;;15.00;;
75512;SDS011;64090;49.770;18.760;2022-10-31T15:55:21;27.50;;;15.00;;
75512;SDS011;64090;49.770;18.760;2022-10-31T15:57:53;27.60;;;14.70;;
75512;SDS011;64090;49.770;18.760;2022-10-31T16:00:25;22.40;;;13.50;;
75512;SDS011;64090;49.770;18.760;2022-10-31T16:05:48;21.90;;;12.10;;
75512;SDS011;64090;49.770;18.760;2022-10-31T16:16:34;17.20;;;9.60;;
75512;SDS011;64090;49.770;18.760;2022-10-31T16:19:34;22.20;;;11.40;;
75512;SDS011;64090;49.770;18.760;2022-10-31T16:22:11;19.60;;;10.80;;
75512;SDS011;64090;49.770;18.760;2022-10-31T16:24:45;26.80;;;13.00;;
75512;SDS011;64090;49.770;18.760;2022-10-31T16:27:21;30.40;;;14.20;;
75512;SDS011;64090;49.770;18.760;2022-10-31T16:29:53;33.80;;;17.60;;
75512;SDS011;64090;49.770;18.760;2022-10-31T16:35:23;34.30;;;20.90;;
75512;SDS011;64090;49.770;18.760;2022-10-31T16:37:52;33.80;;;19.80;;
75512;SDS011;64090;49.770;18.760;2022-10-31T16:40:20;27.80;;;15.60;;
75512;SDS011;64090;49.770;18.760;2022-10-31T16:42:48;26.10;;;16.00;;
75512;SDS011;64090;49.770;18.760;2022-10-31T16:45:23;26.80;;;18.00;;
75512;SDS011;64090;49.770;18.760;2022-10-31T16:47:53;32.90;;;19.00;;
75512;SDS011;64090;49.770;18.760;2022-10-31T16:50:22;36.50;;;21.40;;
75512;SDS011;64090;49.770;18.760;2022-10-31T16:52:52;33.50;;;19.70;;
75512;SDS011;64090;49.770;18.760;2022-10-31T16:55:47;34.00;;;18.30;;
75512;SDS011;64090;49.770;18.760;2022-10-31T16:58:21;30.90;;;19.30;;
75512;SDS011;64090;49.770;18.760;2022-10-31T17:00:55;28.90;;;18.90;;
75512;SDS011;64090;49.770;18.760;2022-10-31T17:03:23;35.40;;;21.00;;
75512;SDS011;64090;49.770;18.760;2022-10-31T17:05:51;37.60;;;22.30;;
75512;SDS011;64090;49.770;18.760;2022-10-31T17:08:22;35.30;;;20.90;;
75512;SDS011;64090;49.770;18.760;2022-10-31T17:10:52;28.90;;;17.70;;
75512;SDS011;64090;49.770;18.760;2022-10-31T17:13:23;26.40;;;18.20;;
75512;SDS011;64090;49.770;18.760;2022-10-31T17:15:55;26.00;;;15.60;;
75512;SDS011;64090;49.770;18.760;2022-10-31T17:18:25;31.80;;;16.00;;
75512;SDS011;64090;49.770;18.760;2022-10-31T17:20:58;33.20;;;17.60;;
75512;SDS011;64090;49.770;18.760;2022-10-31T17:23:27;33.60;;;18.80;;
75512;SDS011;64090;49.770;18.760;2022-10-31T17:25:56;29.40;;;18.20;;
75512;SDS011;64090;49.770;18.760;2022-10-31T17:28:24;30.90;;;16.80;;
75512;SDS011;64090;49.770;18.760;2022-10-31T17:30:53;33.30;;;18.80;;
75512;SDS011;64090;49.770;18.760;2022-10-31T17:33:24;32.70;;;19.40;;
75512;SDS011;64090;49.770;18.760;2022-10-31T17:35:52;33.40;;;19.30;;
75512;SDS011;64090;49.770;18.760;2022-10-31T17:38:20;30.50;;;18.10;;
75512;SDS011;64090;49.770;18.760;2022-10-31T17:40:48;32.90;;;20.10;;
75512;SDS011;64090;49.770;18.760;2022-10-31T17:43:16;31.60;;;18.60;;
75512;SDS011;64090;49.770;18.760;2022-10-31T17:45:44;29.10;;;16.40;;
75512;SDS011;64090;49.770;18.760;2022-10-31T17:48:12;29.00;;;15.30;;
75512;SDS011;64090;49.770;18.760;2022-10-31T17:50:39;25.90;;;14.80;;